Time;durP1;ratioP1;P1;durP2;ratioP2;P2;SDS_P1;SDS_P2;PMS_P1;PMS_P2;Temp;Humidity;BMP_temperature;BMP_pressure;BME280_temperature;BME280_humidity;BME280_pressure;Samples;Min_cycle;Max_cycle;Signal;HPM_P1;HPM_P2
2023/12/23 00:02:18;;;;;;;5.90;4.57;;;;;;;20.63;51.40;96272.25;4980080;28;20252;-26
2023/12/23 00:04:45;;;;;;;4.70;4.03;;;;;;;20.63;51.42;96295.22;4981427;28;20214;-29
2023/12/23 00:07:14;;;;;;;5.70;4.43;;;;;;;20.63;51.18;96310.53;4985225;28;20199;-27
2023/12/23 00:09:41;;;;;;;6.57;4.17;;;;;;;20.63;51.50;96317.38;4980486;28;20207;-26
2023/12/23 00:12:08;;;;;;;8.40;4.97;;;;;;;20.64;51.50;96311.41;4979214;28;20203;-26
2023/12/23 00:14:35;;;;;;;6.90;4.80;;;;;;;20.64;51.72;96329.28;4981945;28;20211;-28
2023/12/23 00:17:02;;;;;;;6.83;5.27;;;;;;;20.61;51.50;96325.00;4963257;28;20625;-26
2023/12/23 00:19:29;;;;;;;6.63;4.57;;;;;;;20.63;51.60;96335.22;4971236;28;20666;-31
2023/12/23 00:21:56;;;;;;;7.33;4.63;;;;;;;20.62;51.49;96334.38;4980764;28;20198;-26
2023/12/23 00:24:24;;;;;;;5.90;4.40;;;;;;;20.61;51.44;96360.75;4974066;28;20283;-26
2023/12/23 00:26:51;;;;;;;7.73;4.90;;;;;;;20.61;51.53;96340.31;4969090;28;20234;-26
2023/12/23 00:29:17;;;;;;;8.60;5.13;;;;;;;20.62;51.52;96328.38;4980668;28;20208;-26
2023/12/23 00:31:44;;;;;;;7.30;4.60;;;;;;;20.62;51.41;96320.72;4978306;28;20195;-29
2023/12/23 00:34:10;;;;;;;6.90;4.87;;;;;;;20.63;51.53;96343.72;4985710;28;20603;-26
2023/12/23 00:36:37;;;;;;;6.83;5.57;;;;;;;20.62;51.75;96347.13;4982230;28;20203;-26
2023/12/23 00:39:04;;;;;;;8.57;5.10;;;;;;;20.63;51.59;96356.50;4968759;28;20254;-26
2023/12/23 00:41:30;;;;;;;17.00;5.57;;;;;;;20.63;51.50;96360.75;4966650;28;20232;-28
2023/12/23 00:43:57;;;;;;;6.17;4.83;;;;;;;20.63;51.53;96359.03;4976586;28;20251;-26
2023/12/23 00:46:24;;;;;;;6.80;5.37;;;;;;;20.64;51.61;96365.88;4979436;28;20673;-26
2023/12/23 00:48:50;;;;;;;7.90;5.33;;;;;;;20.64;51.42;96367.56;4982733;28;20619;-29
2023/12/23 00:51:17;;;;;;;7.97;5.33;;;;;;;20.64;51.41;96365.03;4973637;28;20200;-27
2023/12/23 00:53:43;;;;;;;8.37;5.37;;;;;;;20.64;51.43;96371.00;4972858;28;20251;-26
2023/12/23 00:56:21;;;;;;;6.57;5.20;;;;;;;20.65;51.61;96385.47;4965386;28;20196;-27
2023/12/23 00:58:48;;;;;;;7.33;5.70;;;;;;;20.65;51.53;96387.16;4978351;28;20270;-26
2023/12/23 01:01:14;;;;;;;6.47;5.37;;;;;;;20.64;51.46;96382.88;4982443;28;20218;-26
2023/12/23 01:03:41;;;;;;;6.90;5.40;;;;;;;20.65;51.66;96402.47;4984725;28;20670;-31
2023/12/23 01:06:07;;;;;;;8.67;5.43;;;;;;;20.63;51.40;96410.09;4977459;28;20204;-26
2023/12/23 01:08:34;;;;;;;7.60;5.43;;;;;;;20.64;51.45;96404.19;4977331;28;20210;-28
2023/12/23 01:11:01;;;;;;;7.43;5.37;;;;;;;20.64;51.74;96405.84;4978008;28;20211;-26
2023/12/23 01:13:28;;;;;;;7.73;6.03;;;;;;;20.63;51.55;96409.25;4985259;28;20226;-29
2023/12/23 01:15:55;;;;;;;8.67;6.03;;;;;;;20.65;51.62;96433.97;4975765;28;20207;-26
2023/12/23 01:18:22;;;;;;;7.67;5.60;;;;;;;20.62;51.86;96433.91;4972239;28;20287;-31
2023/12/23 01:20:48;;;;;;;8.10;5.63;;;;;;;20.65;51.61;96430.53;4986229;28;20255;-28
2023/12/23 01:23:15;;;;;;;11.07;5.43;;;;;;;20.64;51.69;96437.34;4962590;28;20231;-26
2023/12/23 01:25:42;;;;;;;6.20;5.20;;;;;;;20.66;51.58;96450.16;4986514;28;20199;-31
2023/12/23 01:28:09;;;;;;;7.87;5.87;;;;;;;20.64;51.42;96439.91;4989284;28;20210;-26
2023/12/23 01:30:36;;;;;;;7.37;5.37;;;;;;;20.65;51.58;96439.06;4989671;28;20206;-28
2023/12/23 01:33:03;;;;;;;8.33;5.77;;;;;;;20.66;51.48;96434.84;4977840;28;20224;-26
2023/12/23 01:35:30;;;;;;;7.13;6.20;;;;;;;20.66;51.77;96448.44;4979694;28;20203;-26
2023/12/23 01:37:56;;;;;;;7.03;5.37;;;;;;;20.67;51.39;96456.97;4976107;28;20698;-30
2023/12/23 01:40:26;;;;;;;8.47;6.60;;;;;;;20.66;51.47;96433.13;4974989;28;20262;-27
2023/12/23 01:42:52;;;;;;;10.07;6.43;;;;;;;20.67;51.59;96444.19;4965900;28;20259;-26
2023/12/23 01:45:19;;;;;;;7.73;6.23;;;;;;;20.66;51.61;96484.16;4968903;28;20258;-28
2023/12/23 01:47:46;;;;;;;9.23;6.73;;;;;;;20.58;51.67;96449.16;4978652;28;20670;-32
2023/12/23 01:50:13;;;;;;;8.23;6.37;;;;;;;20.65;51.57;96463.72;4977008;28;20207;-27
2023/12/23 01:52:40;;;;;;;7.97;6.20;;;;;;;20.66;51.73;96483.34;4975727;28;20306;-26
2023/12/23 01:55:07;;;;;;;8.60;6.77;;;;;;;20.64;51.77;96475.66;4984310;28;20291;-26
2023/12/23 01:57:33;;;;;;;7.93;6.30;;;;;;;20.66;51.63;96481.63;4960999;28;20247;-30
2023/12/23 02:00:00;;;;;;;7.60;6.33;;;;;;;20.65;51.33;96471.38;4975267;28;20596;-27
2023/12/23 02:02:27;;;;;;;7.87;6.30;;;;;;;20.66;51.72;96457.81;4962042;28;20228;-26
2023/12/23 02:04:55;;;;;;;8.77;6.80;;;;;;;20.65;51.57;96453.50;4977004;28;20200;-26
2023/12/23 02:07:22;;;;;;;9.60;7.27;;;;;;;20.65;51.86;96462.03;4975367;28;20195;-26
2023/12/23 02:09:48;;;;;;;8.57;6.63;;;;;;;20.66;51.66;96473.13;4972501;28;20240;-34
2023/12/23 02:12:17;;;;;;;8.73;6.37;;;;;;;20.65;51.73;96479.91;4956814;28;20192;-26
2023/12/23 02:14:47;;;;;;;8.40;7.17;;;;;;;20.65;51.59;96466.28;4974829;28;20210;-30
2023/12/23 02:17:14;;;;;;;7.63;6.30;;;;;;;20.65;51.38;96482.47;4970594;28;20196;-28
2023/12/23 02:19:41;;;;;;;7.37;6.00;;;;;;;20.66;51.74;96468.00;4973786;28;20235;-26
2023/12/23 02:22:07;;;;;;;7.30;6.30;;;;;;;20.66;51.51;96486.72;4990010;28;20267;-26
2023/12/23 02:24:34;;;;;;;7.43;6.13;;;;;;;20.66;51.45;96486.72;4988275;28;20922;-26
2023/12/23 02:27:04;;;;;;;8.37;7.07;;;;;;;20.67;51.53;96505.47;4976994;28;20278;-28
2023/12/23 02:29:30;;;;;;;7.80;6.73;;;;;;;20.66;51.52;96501.19;4967620;28;20250;-31
2023/12/23 02:31:57;;;;;;;8.73;6.77;;;;;;;20.66;51.57;96496.09;4972155;28;20196;-27
2023/12/23 02:34:24;;;;;;;9.57;7.27;;;;;;;20.65;51.88;96509.69;4974471;28;20286;-27
2023/12/23 02:36:50;;;;;;;8.70;6.63;;;;;;;20.65;51.75;96510.53;4977178;28;20207;-35
2023/12/23 02:39:17;;;;;;;9.00;7.40;;;;;;;20.65;51.53;96522.44;4967497;28;20200;-30
2023/12/23 02:41:43;;;;;;;9.30;7.17;;;;;;;20.64;51.75;96519.06;4985799;28;20705;-26
2023/12/23 02:44:10;;;;;;;9.17;7.27;;;;;;;20.64;51.76;96529.25;4975954;28;20231;-26
2023/12/23 02:46:37;;;;;;;8.87;7.13;;;;;;;20.63;51.54;96547.94;4980254;28;20447;-26
2023/12/23 02:49:04;;;;;;;8.63;7.17;;;;;;;20.64;51.76;96572.66;4976053;28;20201;-26
2023/12/23 02:51:30;;;;;;;8.30;6.77;;;;;;;20.64;51.61;96600.75;4975102;28;20207;-26
2023/12/23 02:53:57;;;;;;;9.33;6.73;;;;;;;20.65;51.84;96616.91;4972964;28;20279;-28
2023/12/23 02:56:24;;;;;;;10.93;7.53;;;;;;;20.65;51.62;96627.09;4973874;28;20315;-34
2023/12/23 02:58:50;;;;;;;10.50;7.63;;;;;;;20.66;51.77;96649.28;4974312;28;20254;-27
2023/12/23 03:01:20;;;;;;;10.47;7.47;;;;;;;20.65;51.73;96639.88;4972780;28;20699;-27
2023/12/23 03:03:47;;;;;;;8.77;6.87;;;;;;;20.66;52.02;96665.44;4974622;28;20231;-26
2023/12/23 03:06:14;;;;;;;8.40;7.20;;;;;;;20.65;51.73;96655.19;4971604;28;20311;-26
2023/12/23 03:08:41;;;;;;;10.53;7.33;;;;;;;20.66;51.73;96672.25;4974850;28;20231;-26
2023/12/23 03:11:08;;;;;;;11.20;8.13;;;;;;;20.67;51.66;96663.75;4967895;28;20725;-27
2023/12/23 03:13:35;;;;;;;9.97;8.20;;;;;;;20.67;51.67;96682.50;4980936;28;20278;-26
2023/12/23 03:16:02;;;;;;;11.20;9.27;;;;;;;20.66;51.38;96667.97;4967956;28;20295;-26
2023/12/23 03:18:28;;;;;;;10.63;9.27;;;;;;;20.66;51.54;96655.22;4968727;28;20626;-28
2023/12/23 03:20:55;;;;;;;12.17;9.80;;;;;;;20.66;51.68;96669.69;4966858;28;20227;-28
2023/12/23 03:23:22;;;;;;;10.93;9.27;;;;;;;20.65;51.68;96671.38;4971870;28;20278;-26
2023/12/23 03:25:49;;;;;;;11.07;9.40;;;;;;;20.66;51.57;96664.59;4965549;28;20224;-36
2023/12/23 03:28:15;;;;;;;11.23;9.43;;;;;;;20.64;51.54;96667.13;4973796;28;20258;-26
2023/12/23 03:30:42;;;;;;;12.20;10.00;;;;;;;20.65;51.62;96665.41;4966032;28;20255;-26
2023/12/23 03:33:09;;;;;;;10.97;9.73;;;;;;;20.65;51.71;96657.75;4971503;28;20602;-26
2023/12/23 03:35:37;;;;;;;10.93;9.27;;;;;;;20.66;51.43;96659.47;4970920;28;20582;-26
2023/12/23 03:38:04;;;;;;;11.47;9.50;;;;;;;20.66;51.51;96665.44;4969275;28;20204;-27
2023/12/23 03:40:30;;;;;;;12.00;10.17;;;;;;;20.66;51.84;96672.25;4973819;28;20299;-26
2023/12/23 03:42:57;;;;;;;12.63;10.23;;;;;;;20.66;51.51;96682.47;4974452;28;20476;-34
2023/12/23 03:45:23;;;;;;;11.90;9.87;;;;;;;20.65;51.67;96667.94;4974085;28;20258;-31
2023/12/23 03:47:50;;;;;;;12.13;9.40;;;;;;;20.66;51.78;96678.19;4977118;28;20650;-28
2023/12/23 03:50:17;;;;;;;10.40;9.20;;;;;;;20.66;51.48;96664.59;4971498;28;20673;-26
2023/12/23 03:52:43;;;;;;;12.03;9.83;;;;;;;20.66;51.88;96664.59;4977330;28;20222;-26
2023/12/23 03:55:11;;;;;;;12.13;9.33;;;;;;;20.67;51.54;96661.19;4967996;28;20694;-27
2023/12/23 03:57:37;;;;;;;11.27;10.07;;;;;;;20.67;51.60;96656.09;4979844;28;20751;-29
2023/12/23 04:00:04;;;;;;;11.40;9.30;;;;;;;20.67;51.55;96656.97;4973642;28;20274;-26
2023/12/23 04:02:31;;;;;;;12.47;10.00;;;;;;;20.67;51.41;96659.50;4964378;28;20709;-29
2023/12/23 04:04:58;;;;;;;12.20;10.00;;;;;;;20.65;51.67;96661.16;4968912;28;20671;-27
2023/12/23 04:07:24;;;;;;;12.00;9.77;;;;;;;20.66;51.58;96665.44;4970909;28;20290;-32
2023/12/23 04:09:51;;;;;;;11.93;9.80;;;;;;;20.63;51.58;96660.25;4971452;28;20577;-27
2023/12/23 04:12:17;;;;;;;13.17;10.10;;;;;;;20.66;51.79;96664.59;4973380;28;20263;-26
2023/12/23 04:14:44;;;;;;;12.87;10.40;;;;;;;20.65;51.83;96668.81;4980416;28;20203;-29
2023/12/23 04:17:11;;;;;;;11.70;9.77;;;;;;;20.65;51.69;96661.16;4968735;28;20669;-28
2023/12/23 04:19:38;;;;;;;10.77;8.80;;;;;;;20.65;51.58;96660.28;4967119;28;20297;-26
2023/12/23 04:22:04;;;;;;;12.90;10.57;;;;;;;20.66;51.57;96667.16;4977752;28;20222;-26
2023/12/23 04:24:31;;;;;;;11.33;9.43;;;;;;;20.66;51.68;96670.53;4972124;28;20227;-32
2023/12/23 04:26:58;;;;;;;12.93;10.43;;;;;;;20.66;51.69;96659.47;4973840;28;20208;-27
2023/12/23 04:29:24;;;;;;;12.00;9.90;;;;;;;20.67;51.74;96654.41;4968943;28;20242;-29
2023/12/23 04:31:51;;;;;;;11.97;9.93;;;;;;;20.65;51.51;96650.94;4972184;28;20261;-29
2023/12/23 04:34:17;;;;;;;10.27;8.70;;;;;;;20.66;51.55;96655.22;4969201;28;20600;-28
2023/12/23 04:36:44;;;;;;;12.70;9.77;;;;;;;20.64;51.60;96646.69;4971700;28;20200;-30
2023/12/23 04:39:11;;;;;;;12.67;10.07;;;;;;;20.67;51.74;96646.75;4972911;28;20234;-27
2023/12/23 04:41:37;;;;;;;10.33;9.13;;;;;;;20.66;51.48;96639.91;4972881;28;20286;-26
2023/12/23 04:44:04;;;;;;;12.23;9.87;;;;;;;20.67;51.41;96636.53;4980195;28;20665;-29
2023/12/23 04:46:31;;;;;;;12.00;10.00;;;;;;;20.64;51.62;96625.41;4970777;28;20579;-26
2023/12/23 04:48:57;;;;;;;11.70;9.80;;;;;;;20.67;51.57;96623.78;4968479;28;20742;-29
2023/12/23 04:51:24;;;;;;;11.13;9.97;;;;;;;20.64;51.74;96618.59;4971417;28;20203;-26
2023/12/23 04:53:50;;;;;;;11.00;9.90;;;;;;;20.64;51.93;96615.19;4973386;28;20298;-29
2023/12/23 04:56:17;;;;;;;11.93;9.90;;;;;;;20.58;51.70;96605.72;4972648;28;20562;-28
2023/12/23 04:58:44;;;;;;;13.07;10.33;;;;;;;20.65;51.65;96614.34;4972728;28;20726;-26
2023/12/23 05:01:10;;;;;;;11.30;9.70;;;;;;;20.64;51.67;96603.28;4967666;28;20227;-28
2023/12/23 05:03:37;;;;;;;12.67;10.10;;;;;;;20.65;51.47;96609.22;4961798;28;20613;-27
2023/12/23 05:06:04;;;;;;;11.50;9.93;;;;;;;20.65;51.63;96609.22;4967477;28;20674;-28
2023/12/23 05:08:32;;;;;;;12.03;10.73;;;;;;;20.64;51.69;96608.41;4969239;28;20226;-31
2023/12/23 05:10:59;;;;;;;11.43;9.93;;;;;;;20.65;51.66;96611.78;4973824;28;20196;-29
2023/12/23 05:13:25;;;;;;;11.57;10.13;;;;;;;20.65;51.67;96610.09;4964691;28;20528;-27
2023/12/23 05:15:52;;;;;;;12.43;10.20;;;;;;;20.65;51.78;96606.69;4970996;28;20296;-26
2023/12/23 05:18:19;;;;;;;13.30;10.33;;;;;;;20.65;51.87;96612.66;4979463;28;20204;-26
2023/12/23 05:20:45;;;;;;;14.67;10.67;;;;;;;20.66;51.65;96608.44;4971820;28;20207;-28
2023/12/23 05:23:12;;;;;;;12.93;10.90;;;;;;;20.65;51.60;96612.66;4963716;28;20310;-28
2023/12/23 05:25:38;;;;;;;12.63;10.57;;;;;;;20.66;51.76;96614.38;4973184;28;20581;-26
2023/12/23 05:28:05;;;;;;;13.70;11.37;;;;;;;20.65;51.48;96602.44;4970167;28;20208;-27
2023/12/23 05:30:32;;;;;;;15.17;12.07;;;;;;;20.66;51.72;96605.88;4972886;28;20239;-27
2023/12/23 05:32:59;;;;;;;15.47;12.57;;;;;;;20.66;51.63;96613.53;4975037;28;20703;-26
2023/12/23 05:35:26;;;;;;;14.27;12.43;;;;;;;20.65;51.77;96616.91;4965804;28;20259;-31
2023/12/23 05:37:52;;;;;;;15.40;12.80;;;;;;;20.65;51.74;96607.56;4967501;28;20208;-29
2023/12/23 05:40:19;;;;;;;15.30;12.73;;;;;;;20.66;51.74;96593.09;4980181;28;20255;-26
2023/12/23 05:42:45;;;;;;;16.63;13.70;;;;;;;20.65;51.67;96604.13;4972928;28;20232;-26
2023/12/23 05:45:14;;;;;;;16.13;13.10;;;;;;;20.64;51.89;96602.41;4964041;28;20204;-31
2023/12/23 05:47:42;;;;;;;15.57;13.20;;;;;;;20.64;51.59;96600.75;4976486;28;20258;-35
2023/12/23 05:50:10;;;;;;;17.80;13.60;;;;;;;20.64;51.51;96605.84;4971054;28;20211;-36
2023/12/23 05:52:37;;;;;;;15.30;13.17;;;;;;;20.64;51.76;96603.28;4968710;28;20226;-27
2023/12/23 05:55:04;;;;;;;16.40;13.43;;;;;;;20.63;51.69;96609.22;4972138;28;20207;-26
2023/12/23 05:57:30;;;;;;;16.97;13.97;;;;;;;20.63;51.89;96609.22;4975223;28;20674;-29
2023/12/23 05:59:57;;;;;;;17.87;13.77;;;;;;;20.64;51.65;96605.84;4971546;28;20204;-29
2023/12/23 06:02:23;;;;;;;18.50;14.83;;;;;;;20.65;51.66;96607.56;4973559;28;20254;-27
2023/12/23 06:04:52;;;;;;;17.57;14.43;;;;;;;20.65;51.77;96610.09;4970485;28;20228;-27
2023/12/23 06:07:18;;;;;;;17.47;14.47;;;;;;;20.66;51.51;96613.53;4969862;28;20262;-26
2023/12/23 06:09:45;;;;;;;18.60;14.50;;;;;;;20.65;51.58;96610.09;4980721;28;20243;-28
2023/12/23 06:12:11;;;;;;;17.97;14.97;;;;;;;20.66;51.56;96605.88;4968479;28;20267;-30
2023/12/23 06:14:40;;;;;;;20.50;15.30;;;;;;;20.66;51.73;96619.47;4956820;28;20200;-27
2023/12/23 06:17:06;;;;;;;18.67;15.60;;;;;;;20.66;51.48;96622.03;4966973;28;20242;-26
2023/12/23 06:19:33;;;;;;;18.57;15.87;;;;;;;20.65;51.28;96620.31;4963618;28;20585;-26
2023/12/23 06:21:59;;;;;;;20.20;17.00;;;;;;;20.66;51.73;96624.56;4962864;28;20641;-26
2023/12/23 06:24:26;;;;;;;19.63;16.10;;;;;;;20.65;51.69;96620.31;4964399;28;20264;-33
2023/12/23 06:26:53;;;;;;;21.53;17.70;;;;;;;20.65;51.51;96622.88;4966564;28;20239;-26
2023/12/23 06:29:20;;;;;;;21.40;17.50;;;;;;;20.65;51.54;96616.91;4961044;28;20215;-26
2023/12/23 06:31:46;;;;;;;19.90;16.87;;;;;;;20.64;51.54;96621.16;4966530;28;20214;-28
2023/12/23 06:34:13;;;;;;;21.10;17.30;;;;;;;20.64;51.87;96617.75;4959409;28;20275;-28
2023/12/23 06:36:40;;;;;;;22.50;16.93;;;;;;;20.59;51.50;96606.56;4964324;28;20289;-26
2023/12/23 06:39:06;;;;;;;23.13;18.27;;;;;;;20.63;51.72;96621.97;4963845;28;20208;-26
2023/12/23 06:41:33;;;;;;;24.40;19.20;;;;;;;20.63;51.52;96619.41;4958362;28;20232;-28
2023/12/23 06:43:59;;;;;;;22.50;18.53;;;;;;;20.64;51.59;96618.59;4971964;28;20299;-27
2023/12/23 06:46:26;;;;;;;25.57;19.77;;;;;;;20.63;51.69;96619.41;4967065;28;20203;-26
2023/12/23 06:48:52;;;;;;;26.77;20.67;;;;;;;20.63;51.55;96614.31;4963131;28;20200;-26
2023/12/23 06:51:19;;;;;;;26.97;20.73;;;;;;;20.65;51.58;96624.56;4963833;28;20208;-27
2023/12/23 06:53:49;;;;;;;28.03;22.27;;;;;;;20.65;51.63;96622.00;4965421;28;20220;-26
2023/12/23 06:56:15;;;;;;;29.80;22.73;;;;;;;20.65;51.43;96629.66;4971558;28;20650;-28
2023/12/23 06:58:42;;;;;;;28.80;22.73;;;;;;;20.64;51.43;96627.94;4963076;28;20204;-26
2023/12/23 07:01:09;;;;;;;31.40;24.00;;;;;;;20.65;51.47;96622.88;4958523;28;20287;-26
2023/12/23 07:03:35;;;;;;;34.03;25.63;;;;;;;20.65;51.67;96627.09;4967065;28;20228;-31
2023/12/23 07:06:03;;;;;;;31.70;24.07;;;;;;;20.64;51.55;96640.72;4961733;28;20223;-27
2023/12/23 07:08:30;;;;;;;31.77;24.80;;;;;;;20.65;51.61;96634.75;4963495;28;20200;-28
2023/12/23 07:10:58;;;;;;;33.97;26.40;;;;;;;20.65;51.65;96637.31;4964674;28;20478;-26
2023/12/23 07:13:24;;;;;;;33.80;26.33;;;;;;;20.65;51.53;96635.63;4967048;28;20224;-27
2023/12/23 07:15:51;;;;;;;38.33;28.83;;;;;;;20.65;51.87;96638.19;4972393;28;20287;-26
2023/12/23 07:18:17;;;;;;;41.87;29.37;;;;;;;20.65;51.88;96640.75;4970767;28;20195;-31
2023/12/23 07:20:46;;;;;;;43.43;29.40;;;;;;;20.64;52.01;96636.47;4965332;28;20297;-31
2023/12/23 07:23:13;;;;;;;56.90;32.37;;;;;;;20.64;52.13;96639.03;4975292;28;20242;-29
2023/12/23 07:25:39;;;;;;;45.83;31.00;;;;;;;20.64;52.07;96633.94;4972242;28;20215;-32
2023/12/23 07:28:06;;;;;;;49.13;32.00;;;;;;;20.63;52.12;96639.84;4963987;28;20209;-29
2023/12/23 07:30:33;;;;;;;49.27;31.77;;;;;;;20.63;52.01;96634.72;4979984;28;20235;-27
2023/12/23 07:32:59;;;;;;;47.80;33.27;;;;;;;20.63;51.98;96644.94;4971024;28;20216;-26
2023/12/23 07:35:27;;;;;;;47.87;32.67;;;;;;;20.64;52.02;96628.81;4974262;28;20286;-26
2023/12/23 07:37:54;;;;;;;49.80;31.73;;;;;;;20.64;51.97;96630.50;4969223;28;20299;-27
2023/12/23 07:40:20;;;;;;;50.73;33.57;;;;;;;20.64;51.83;96635.59;4976110;28;20202;-26
2023/12/23 07:42:47;;;;;;;44.97;31.93;;;;;;;20.64;51.75;96631.38;4963224;28;20297;-26
2023/12/23 07:45:14;;;;;;;44.03;32.77;;;;;;;20.64;51.79;96621.16;4964733;28;20204;-26
2023/12/23 07:47:41;;;;;;;49.30;32.70;;;;;;;20.65;51.62;96634.75;4972492;28;20247;-28
2023/12/23 07:50:08;;;;;;;48.37;33.17;;;;;;;20.63;51.88;96629.63;4962876;28;20287;-29
2023/12/23 07:52:39;;;;;;;53.73;35.17;;;;;;;20.63;51.63;96629.63;4973261;28;20228;-28
2023/12/23 07:55:07;;;;;;;49.63;33.03;;;;;;;20.62;51.78;96630.47;4967975;28;20291;-27
2023/12/23 07:57:33;;;;;;;52.87;32.53;;;;;;;20.61;51.73;96622.78;4969280;28;20617;-26
2023/12/23 08:00:00;;;;;;;58.63;35.03;;;;;;;20.63;51.87;96619.41;4969549;28;20647;-30
2023/12/23 08:02:26;;;;;;;50.07;33.23;;;;;;;20.63;51.80;96613.47;4969464;28;20590;-28
2023/12/23 08:04:53;;;;;;;46.93;33.27;;;;;;;20.62;51.53;96594.72;4969935;28;20587;-35
2023/12/23 08:07:20;;;;;;;48.27;31.83;;;;;;;20.62;51.85;96588.75;4966073;28;20304;-26
2023/12/23 08:09:46;;;;;;;42.90;29.87;;;;;;;20.64;51.80;96602.41;4966878;28;20235;-30
2023/12/23 08:12:13;;;;;;;44.03;31.00;;;;;;;20.54;51.82;96573.31;4958327;28;20621;-26
2023/12/23 08:14:40;;;;;;;48.57;31.33;;;;;;;20.64;51.86;96599.88;4967056;28;20255;-26
2023/12/23 08:17:06;;;;;;;44.83;29.03;;;;;;;20.65;51.84;96599.03;4962587;28;20255;-30
2023/12/23 08:19:33;;;;;;;45.17;29.53;;;;;;;20.64;51.52;96592.22;4968011;28;20204;-28
2023/12/23 08:21:59;;;;;;;40.27;28.80;;;;;;;20.64;51.35;96594.75;4972134;28;20254;-31
2023/12/23 08:24:26;;;;;;;44.90;30.73;;;;;;;20.64;51.53;96602.41;4967717;28;20220;-27
2023/12/23 08:26:53;;;;;;;44.53;29.27;;;;;;;20.64;51.57;96584.56;4971875;28;20203;-26
2023/12/23 08:29:20;;;;;;;46.10;31.53;;;;;;;20.63;51.64;96598.16;4967016;28;20635;-26
2023/12/23 08:31:47;;;;;;;48.50;31.23;;;;;;;20.64;51.65;96576.91;4968250;28;20216;-26
2023/12/23 08:34:13;;;;;;;41.33;30.30;;;;;;;20.62;51.69;96592.19;4961875;28;20713;-28
2023/12/23 08:36:40;;;;;;;43.17;29.83;;;;;;;20.62;51.64;96597.28;4968083;28;20203;-26
2023/12/23 08:39:07;;;;;;;40.33;30.00;;;;;;;20.62;51.72;96587.06;4969113;28;20204;-26
2023/12/23 08:41:36;;;;;;;43.83;29.57;;;;;;;20.63;51.76;96588.78;4963593;28;20210;-26
2023/12/23 08:44:03;;;;;;;42.13;30.27;;;;;;;20.63;51.53;96588.78;4967639;28;20224;-26
2023/12/23 08:46:30;;;;;;;41.33;29.47;;;;;;;20.63;51.83;96590.50;4969983;28;20255;-31
2023/12/23 08:48:57;;;;;;;39.07;28.63;;;;;;;20.62;52.11;96591.31;4964687;28;20207;-27
2023/12/23 08:51:24;;;;;;;40.80;29.03;;;;;;;20.64;51.74;96604.97;4954733;28;20216;-28
2023/12/23 08:53:50;;;;;;;39.47;28.10;;;;;;;20.65;51.71;96599.03;4969871;28;20216;-28
2023/12/23 08:56:17;;;;;;;41.10;27.53;;;;;;;20.66;51.56;96593.09;4963510;28;20199;-26
2023/12/23 08:58:44;;;;;;;36.27;27.23;;;;;;;20.66;51.60;96582.91;4962560;28;20246;-26
2023/12/23 09:01:11;;;;;;;38.47;27.73;;;;;;;20.67;51.47;96589.72;4957159;28;20236;-27
2023/12/23 09:03:38;;;;;;;34.90;26.47;;;;;;;20.67;51.62;96590.59;4967564;28;20312;-26
2023/12/23 09:06:06;;;;;;;38.67;26.87;;;;;;;20.69;51.46;96595.72;4964029;28;20195;-26
2023/12/23 09:08:34;;;;;;;32.47;24.90;;;;;;;20.68;51.73;96584.63;4963239;28;20759;-29
2023/12/23 09:11:04;;;;;;;33.70;24.57;;;;;;;20.69;51.53;96585.50;4962914;28;20223;-33
2023/12/23 09:13:31;;;;;;;36.93;26.07;;;;;;;20.69;51.39;96586.34;4968516;28;20278;-32
2023/12/23 09:16:00;;;;;;;38.20;26.23;;;;;;;20.69;51.55;96578.69;4964812;28;20231;-26
2023/12/23 09:18:27;;;;;;;40.50;26.83;;;;;;;20.69;51.74;96582.94;4973250;28;20199;-35
2023/12/23 09:20:54;;;;;;;36.13;24.17;;;;;;;20.69;51.69;96586.34;4961002;28;20670;-28
2023/12/23 09:23:20;;;;;;;37.30;24.73;;;;;;;20.68;51.64;96581.22;4966296;28;20232;-26
2023/12/23 09:25:47;;;;;;;33.63;24.17;;;;;;;20.68;50.86;96576.97;4974997;28;20656;-28
2023/12/23 09:28:14;;;;;;;34.47;23.73;;;;;;;20.69;51.58;96588.06;4969878;28;20534;-33
2023/12/23 09:30:40;;;;;;;33.67;23.77;;;;;;;20.69;51.38;96582.94;4975525;28;20687;-26
2023/12/23 09:33:07;;;;;;;33.43;22.40;;;;;;;20.69;51.49;96582.94;4979996;28;20221;-26
2023/12/23 09:35:33;;;;;;;35.80;24.27;;;;;;;20.69;51.64;96596.56;4971990;28;20259;-27
2023/12/23 09:38:00;;;;;;;36.20;23.27;;;;;;;20.69;51.41;96596.56;4969583;28;20205;-26
2023/12/23 09:40:27;;;;;;;31.20;21.93;;;;;;;20.69;51.46;96595.72;4970593;28;20210;-26
2023/12/23 09:42:54;;;;;;;31.80;21.10;;;;;;;20.69;51.65;96593.16;4973404;28;20263;-26
2023/12/23 09:45:20;;;;;;;29.53;21.23;;;;;;;20.67;51.54;96592.25;4977373;28;20645;-28
2023/12/23 09:47:47;;;;;;;33.83;22.10;;;;;;;20.67;51.66;96588.03;4956882;28;20259;-26
2023/12/23 09:50:15;;;;;;;31.83;21.87;;;;;;;20.64;51.65;96587.97;4968471;28;20196;-28
2023/12/23 09:52:41;;;;;;;29.43;19.97;;;;;;;20.65;51.58;96592.25;4971601;28;20226;-34
2023/12/23 09:55:09;;;;;;;23.90;17.87;;;;;;;20.67;50.85;96599.91;4963186;28;20196;-26
2023/12/23 09:57:35;;;;;;;21.57;15.07;;;;;;;20.65;50.56;96581.16;4976590;28;20299;-26
2023/12/23 10:00:03;;;;;;;18.50;13.63;;;;;;;20.62;50.28;96589.63;4957765;28;20228;-30
2023/12/23 10:02:29;;;;;;;16.00;12.33;;;;;;;20.62;49.97;96596.41;4967544;28;20654;-32
2023/12/23 10:04:56;;;;;;;16.53;12.37;;;;;;;20.60;49.98;96586.19;4962763;28;20199;-27
2023/12/23 10:07:23;;;;;;;15.80;11.87;;;;;;;20.58;50.18;96580.22;4965485;28;20208;-27
2023/12/23 10:09:50;;;;;;;15.10;12.53;;;;;;;20.58;50.29;96585.31;4967905;28;20262;-30
2023/12/23 10:12:17;;;;;;;18.73;12.77;;;;;;;20.58;50.30;96582.75;4965967;28;20325;-36
2023/12/23 10:14:44;;;;;;;15.67;12.20;;;;;;;20.57;50.46;96588.69;4963612;28;20317;-28
2023/12/23 10:17:11;;;;;;;17.87;12.53;;;;;;;20.51;50.40;96574.94;4962332;28;20350;-39
2023/12/23 10:19:37;;;;;;;14.67;11.77;;;;;;;20.56;50.36;96583.53;4967093;28;20215;-27
2023/12/23 10:22:04;;;;;;;16.23;12.93;;;;;;;20.43;50.38;96563.75;4962984;28;20234;-30
2023/12/23 10:24:31;;;;;;;17.50;12.07;;;;;;;20.53;49.89;96584.34;4964812;28;20282;-27
2023/12/23 10:26:57;;;;;;;18.40;12.60;;;;;;;20.49;50.06;96600.44;4964824;28;20590;-34
2023/12/23 10:29:24;;;;;;;16.33;11.93;;;;;;;20.52;50.25;96589.44;4948715;28;20718;-31
2023/12/23 10:31:51;;;;;;;15.20;11.53;;;;;;;20.47;50.18;96583.38;4962925;28;20207;-29
2023/12/23 10:34:17;;;;;;;17.40;12.47;;;;;;;20.49;49.82;96599.59;4944775;28;20246;-26
2023/12/23 10:36:44;;;;;;;14.97;11.77;;;;;;;20.49;50.13;96589.38;4946862;28;20208;-35
2023/12/23 10:39:39;;;;;;;15.27;11.83;;;;;;;20.46;50.11;96600.38;4962958;28;20231;-26
2023/12/23 10:42:05;;;;;;;14.47;11.73;;;;;;;20.42;50.17;96575.63;4963982;28;20347;-26
2023/12/23 10:44:32;;;;;;;14.60;11.90;;;;;;;20.44;50.11;96591.84;4962719;28;20231;-26
2023/12/23 10:46:59;;;;;;;15.70;11.73;;;;;;;20.43;50.13;96582.44;4963945;28;20216;-30
2023/12/23 10:49:25;;;;;;;15.30;12.00;;;;;;;20.43;50.24;96577.34;4962645;28;20291;-27
2023/12/23 10:51:54;;;;;;;15.07;11.87;;;;;;;20.42;50.06;96582.41;4964008;28;20899;-28
2023/12/23 10:54:24;;;;;;;16.30;11.23;;;;;;;20.43;50.17;96609.69;4947227;28;20582;-29
2023/12/23 10:56:51;;;;;;;12.40;10.97;;;;;;;20.44;50.30;96583.31;4960197;28;20207;-30
2023/12/23 10:59:19;;;;;;;14.97;11.70;;;;;;;20.44;50.07;96583.31;4964243;28;20211;-27
2023/12/23 11:01:45;;;;;;;11.83;10.30;;;;;;;20.41;50.01;96590.91;4965643;28;20258;-28
2023/12/23 11:04:12;;;;;;;19.33;11.63;;;;;;;20.41;50.15;96588.38;4960386;28;20227;-28
2023/12/23 11:06:41;;;;;;;12.43;10.77;;;;;;;20.42;49.95;96593.50;4964564;28;20317;-29
2023/12/23 11:09:08;;;;;;;13.90;11.07;;;;;;;20.42;50.13;96596.03;4964793;28;20440;-27
2023/12/23 11:11:34;;;;;;;14.10;10.53;;;;;;;20.40;50.06;96607.91;4963824;28;20211;-28
2023/12/23 11:14:04;;;;;;;14.10;10.77;;;;;;;20.39;50.16;96608.75;4947648;28;20236;-30
2023/12/23 11:16:31;;;;;;;12.87;10.50;;;;;;;20.40;50.24;96607.06;4965904;28;20530;-28
2023/12/23 11:18:57;;;;;;;13.30;10.90;;;;;;;20.40;50.08;96601.97;4965438;28;20772;-26
2023/12/23 11:21:24;;;;;;;13.50;10.67;;;;;;;20.40;49.91;96605.34;4964442;28;20338;-30